Time;durP1;ratioP1;P1;durP2;ratioP2;P2;SDS_P1;SDS_P2;PMS_P1;PMS_P2;Temp;Humidity;BMP_temperature;BMP_pressure;BME280_temperature;BME280_humidity;BME280_pressure;Samples;Min_cycle;Max_cycle;Signal;HPM_P1;HPM_P2
2022/05/20 10:34:44;;;;;;;80.80;51.88;;;;;;;39.32;29.72;101531.97;5025342;28;20057;-54
2022/05/20 10:37:39;;;;;;;92.25;60.42;;;;;;;38.82;29.74;101524.44;5021142;28;20097;-57
2022/05/20 10:41:04;;;;;;;56.90;34.67;;;;;;;39.98;28.09;101520.44;5023081;28;20052;-56
2022/05/20 10:49:49;;;;;;;17.67;11.10;;;;;;;41.05;27.17;101485.34;5027139;28;20045;-57
2022/05/20 10:52:30;;;;;;;17.27;10.75;;;;;;;39.66;29.16;101473.25;5012540;28;20049;-57
2022/05/20 10:54:59;;;;;;;15.02;10.52;;;;;;;39.58;29.17;101464.00;5008525;28;20038;-56
2022/05/20 10:58:03;;;;;;;14.75;9.15;;;;;;;39.40;30.50;101447.81;5016915;28;20045;-54
2022/05/20 11:00:44;;;;;;;15.70;9.95;;;;;;;38.94;29.85;101448.75;5025246;28;20080;-56
2022/05/20 11:03:34;;;;;;;13.10;6.88;;;;;;;39.68;29.55;101426.13;5012164;28;20031;-57
2022/05/20 11:06:18;;;;;;;14.27;7.85;;;;;;;39.00;30.33;101396.94;5027078;28;20041;-55
2022/05/20 11:08:53;;;;;;;13.63;6.85;;;;;;;38.76;30.90;101391.81;5026321;28;20045;-55
2022/05/20 11:11:37;;;;;;;49.22;29.33;;;;;;;38.83;30.95;101380.72;5019370;28;20047;-57
2022/05/20 11:14:34;;;;;;;86.93;54.78;;;;;;;38.76;30.71;101369.44;5018411;28;20064;-54
2022/05/20 11:17:11;;;;;;;104.50;66.28;;;;;;;39.54;30.00;101359.63;5018359;28;20044;-56
2022/05/20 11:20:13;;;;;;;107.68;70.47;;;;;;;39.33;30.07;101357.38;5019738;28;20038;-54
2022/05/20 11:23:02;;;;;;;47.70;30.15;;;;;;;39.36;30.20;101351.00;5021317;28;20044;-56
2022/05/20 11:25:43;;;;;;;19.23;9.43;;;;;;;38.61;30.60;101341.28;5030187;28;20050;-56
2022/05/20 11:28:21;;;;;;;14.53;8.30;;;;;;;38.23;31.39;101343.09;5021852;28;20034;-51
2022/05/20 11:30:55;;;;;;;15.83;8.37;;;;;;;37.64;32.50;101341.28;5019369;28;20054;-55
2022/05/20 11:33:47;;;;;;;11.40;7.40;;;;;;;38.92;31.01;101333.72;5023515;28;20033;-55
2022/05/20 11:36:40;;;;;;;16.33;7.77;;;;;;;38.41;31.56;101319.03;5022152;28;20030;-53
2022/05/20 11:39:48;;;;;;;14.50;6.90;;;;;;;37.67;32.41;101318.22;5024880;28;20112;-55
2022/05/20 11:42:22;;;;;;;12.82;6.95;;;;;;;37.44;33.34;101327.34;4964367;28;20114;-50
2022/05/20 11:45:09;;;;;;;11.40;7.20;;;;;;;37.88;32.95;101320.59;5012936;28;20030;-52
2022/05/20 11:47:40;;;;;;;12.30;7.53;;;;;;;37.37;33.98;101304.09;5009049;28;20578;-51
2022/05/20 11:50:41;;;;;;;13.50;7.53;;;;;;;38.26;32.79;101287.31;5008776;28;20042;-50
2022/05/20 11:53:23;;;;;;;16.63;8.60;;;;;;;37.21;34.46;101279.13;5012063;28;20042;-53
2022/05/20 11:56:06;;;;;;;15.93;8.23;;;;;;;37.25;34.69;101264.06;5012672;28;20042;-52
2022/05/20 11:58:35;;;;;;;22.63;10.73;;;;;;;38.30;33.66;101254.66;5007290;28;20048;-53
2022/05/20 12:01:02;;;;;;;19.10;10.13;;;;;;;37.52;34.69;101243.88;5010120;28;20041;-51
2022/05/20 12:04:06;;;;;;;18.03;10.80;;;;;;;37.06;35.71;101248.19;5012243;28;20079;-53
2022/05/20 12:06:18;;;;;;;16.13;9.57;;;;;;;36.66;36.97;101230.63;5013068;28;20034;-51
2022/05/20 12:08:45;;;;;;;20.17;10.13;;;;;;;36.95;37.13;101208.94;5009399;28;20042;-52
2022/05/20 12:11:32;;;;;;;18.57;11.53;;;;;;;37.56;35.71;101200.88;5010176;28;20038;-52
2022/05/20 12:14:01;;;;;;;19.05;9.90;;;;;;;37.86;35.18;101194.59;5009584;28;20038;-52
2022/05/20 12:16:27;;;;;;;19.73;11.77;;;;;;;39.17;33.55;101187.81;5011801;28;20108;-51
2022/05/20 12:24:43;;;;;;;22.97;13.23;;;;;;;38.13;37.37;101189.00;5010865;28;20097;-51
2022/05/20 12:27:12;;;;;;;17.87;12.23;;;;;;;38.19;38.95;101172.75;5012124;28;20038;-53
2022/05/20 12:29:37;;;;;;;28.87;16.53;;;;;;;38.45;40.26;101165.50;5012133;28;20104;-53
2022/05/20 12:32:15;;;;;;;30.05;17.70;;;;;;;38.11;41.91;101169.03;5012096;28;20050;-53
2022/05/20 12:34:42;;;;;;;39.07;19.30;;;;;;;38.12;44.54;101153.91;5008937;28;20064;-53
2022/05/20 12:37:40;;;;;;;44.73;23.70;;;;;;;38.14;45.64;101185.03;5010333;28;20055;-50
2022/05/20 12:40:15;;;;;;;88.43;25.25;;;;;;;37.22;56.92;101203.47;5008706;28;20039;-49
2022/05/20 12:42:45;;;;;;;54.67;32.60;;;;;;;37.96;57.80;101178.38;5009609;28;20077;-54
2022/05/20 12:45:11;;;;;;;58.53;31.47;;;;;;;37.68;56.44;101196.28;5009438;28;20114;-49
2022/05/20 12:47:37;;;;;;;67.30;34.45;;;;;;;37.31;58.07;101217.19;5011378;28;20023;-50
2022/05/20 12:50:19;;;;;;;63.43;35.07;;;;;;;37.43;64.23;101214.19;5012296;28;20042;-49
2022/05/20 12:52:46;;;;;;;126.17;74.83;;;;;;;39.11;53.51;101204.16;5011506;28;20064;-54
2022/05/20 12:55:21;;;;;;;99.10;57.53;;;;;;;39.18;51.22;101214.59;5009975;28;20034;-50
2022/05/20 12:57:58;;;;;;;104.37;61.30;;;;;;;38.71;52.93;101195.31;5011903;28;20112;-52
2022/05/20 13:00:34;;;;;;;93.50;49.50;;;;;;;38.58;54.28;101196.78;5011916;28;20071;-53
2022/05/20 13:03:07;;;;;;;81.20;47.90;;;;;;;38.80;54.71;101206.19;5010617;28;20631;-53
2022/05/20 13:05:37;;;;;;;104.27;62.63;;;;;;;38.39;55.44;101209.69;5009959;28;20075;-49
2022/05/20 13:08:07;;;;;;;100.53;60.60;;;;;;;38.45;54.32;101218.56;5012062;28;20018;-50
2022/05/20 13:10:36;;;;;;;87.37;49.37;;;;;;;-147.27;100.00;65176.34;5012138;28;20087;-52
2022/05/20 13:13:28;;;;;;;64.47;39.30;;;;;;;-147.27;100.00;65176.34;5011178;28;20034;-50
2022/05/20 13:15:57;;;;;;;70.13;42.60;;;;;;;38.83;55.61;101213.81;5011896;28;20056;-53
2022/05/20 13:18:30;;;;;;;73.23;42.53;;;;;;;39.47;53.82;101206.50;5010848;28;20037;-52
2022/05/20 13:20:58;;;;;;;52.93;31.83;;;;;;;39.52;52.42;101178.16;5010058;28;20026;-51
2022/05/20 13:23:34;;;;;;;56.60;34.33;;;;;;;39.93;49.03;101154.06;5010852;28;20064;-52
2022/05/20 13:25:59;;;;;;;53.93;33.97;;;;;;;38.59;52.24;101120.97;5007872;28;20045;-51
2022/05/20 13:28:29;;;;;;;57.92;31.10;;;;;;;38.67;52.40;101101.50;5011543;28;20038;-51
2022/05/20 13:31:18;;;;;;;48.00;30.97;;;;;;;38.18;53.64;101081.78;5024302;28;20042;-48
2022/05/20 13:33:44;;;;;;;52.43;31.50;;;;;;;38.40;52.16;101068.88;5030971;28;20049;-52
2022/05/20 13:36:17;;;;;;;;;;;;;;;40.75;46.39;101070.72;5029335;28;20079;-55
2022/05/20 13:38:49;;;;;;;49.57;29.53;;;;;;;39.76;48.34;101052.78;5036770;28;19952;-50
2022/05/20 13:41:15;;;;;;;45.73;26.70;;;;;;;39.92;47.74;101044.09;5027037;28;20026;-52
2022/05/20 13:43:41;;;;;;;43.20;26.27;;;;;;;39.60;48.33;101032.72;5024099;28;20046;-54
2022/05/20 13:49:13;;;;;;;62.40;28.00;;;;;;;39.21;50.79;101022.88;5028399;28;19980;-52
2022/05/20 13:52:03;;;;;;;54.45;28.70;;;;;;;39.80;49.25;101034.00;5021977;28;20072;-52
2022/05/20 13:54:31;;;;;;;70.33;29.90;;;;;;;40.02;48.50;101025.72;5023254;28;20057;-51
2022/05/20 13:56:57;;;;;;;52.60;31.13;;;;;;;39.54;49.63;101021.91;5029355;28;20030;-53
2022/05/20 13:59:32;;;;;;;;;;;;;;;39.75;49.83;101017.59;5029247;28;20036;-55
2022/05/20 14:02:10;;;;;;;84.17;42.90;;;;;;;38.56;59.94;101021.16;5025894;28;19913;-53
2022/05/20 14:04:45;;;;;;;163.73;38.03;;;;;;;38.04;100.00;101120.69;5027370;28;20041;-49
2022/05/20 14:07:41;;;;;;;108.65;33.53;;;;;;;26.91;100.00;101111.88;5018794;28;20030;-50
2022/05/20 14:10:28;;;;;;;224.63;40.50;;;;;;;26.32;100.00;101085.59;5022541;28;20098;-53
2022/05/20 14:13:00;;;;;;;91.03;27.90;;;;;;;26.34;100.00;101110.78;5015449;28;20041;-49
2022/05/20 14:15:47;;;;;;;72.93;30.70;;;;;;;25.68;100.00;101115.19;5028011;28;20060;-52
2022/05/20 14:18:18;;;;;;;77.13;35.53;;;;;;;26.73;100.00;101083.34;5012906;28;20057;-52
2022/05/20 14:20:47;;;;;;;89.73;39.57;;;;;;;26.75;100.00;101078.38;5025973;28;20056;-51
2022/05/20 14:23:23;;;;;;;117.33;47.67;;;;;;;27.18;100.00;101058.16;5015613;28;20050;-52
2022/05/20 14:25:58;;;;;;;112.38;50.25;;;;;;;27.05;100.00;101044.13;5014012;28;20034;-51
2022/05/20 14:29:04;;;;;;;101.87;42.17;;;;;;;27.45;100.00;101042.81;5019989;28;20030;-51
2022/05/20 14:31:39;;;;;;;80.93;41.63;;;;;;;27.06;100.00;101042.19;5021444;28;20073;-52
2022/05/20 14:34:09;;;;;;;75.30;37.43;;;;;;;27.51;100.00;101044.38;5012392;28;20336;-55
2022/05/20 14:36:36;;;;;;;74.83;37.23;;;;;;;27.18;100.00;101047.19;5019997;28;20492;-53
2022/05/20 14:39:07;;;;;;;80.63;36.57;;;;;;;26.70;100.00;101040.88;5012689;28;20043;-55
2022/05/20 14:41:34;;;;;;;74.73;36.53;;;;;;;26.98;100.00;101049.19;5017999;28;20041;-51
2022/05/20 14:44:05;;;;;;;101.27;42.57;;;;;;;26.85;100.00;101052.72;5024353;28;20029;-53
2022/05/20 14:49:29;;;;;;;76.37;37.13;;;;;;;25.68;100.00;101071.38;5029863;28;20029;-52
2022/05/20 14:51:56;;;;;;;95.53;45.53;;;;;;;25.20;100.00;101092.09;5023622;28;20026;-52
2022/05/20 14:54:35;;;;;;;93.07;42.60;;;;;;;25.06;100.00;101100.19;5027747;28;20038;-53
2022/05/20 14:57:28;;;;;;;61.60;29.57;;;;;;;24.49;100.00;101074.06;5027236;28;20097;-53
2022/05/20 15:00:24;;;;;;;78.80;36.73;;;;;;;25.17;100.00;101098.16;5027990;28;20042;-54
2022/05/20 15:02:49;;;;;;;81.33;36.47;;;;;;;25.63;100.00;101084.00;5027497;28;20038;-54
2022/05/20 15:05:15;;;;;;;98.47;42.97;;;;;;;25.89;100.00;101111.09;5026013;28;20097;-52
2022/05/20 15:07:43;;;;;;;141.25;44.25;;;;;;;25.49;100.00;101121.41;5028245;28;20041;-51
2022/05/20 15:10:16;;;;;;;95.77;41.50;;;;;;;25.85;100.00;101153.06;5029902;28;20038;-51
2022/05/20 15:12:44;;;;;;;106.47;42.83;;;;;;;23.82;100.00;101160.94;5029536;28;20036;-52
2022/05/20 15:15:11;;;;;;;96.23;42.67;;;;;;;23.89;100.00;101188.81;5029998;28;20038;-54
2022/05/20 15:17:55;;;;;;;109.17;45.60;;;;;;;23.52;100.00;101181.75;5032173;28;20041;-52
2022/05/20 15:20:21;;;;;;;103.83;45.60;;;;;;;22.82;100.00;101208.44;5028708;28;20075;-52
2022/05/20 15:22:46;;;;;;;87.05;41.38;;;;;;;23.22;100.00;101214.22;5030714;28;20030;-50
2022/05/20 15:25:12;;;;;;;91.43;44.00;;;;;;;23.62;100.00;101212.59;5030222;28;20034;-51
2022/05/20 15:27:38;;;;;;;64.95;32.80;;;;;;;22.33;100.00;101215.06;5033924;28;20046;-51
2022/05/20 15:30:04;;;;;;;51.35;24.17;;;;;;;22.61;100.00;101218.47;5033161;28;20064;-52
2022/05/20 15:35:13;;;;;;;38.80;21.23;;;;;;;22.01;100.00;101213.28;5030475;28;20290;-53
2022/05/20 15:37:42;;;;;;;40.88;19.85;;;;;;;22.81;100.00;101230.50;5033078;28;20275;-51
2022/05/20 15:40:12;;;;;;;34.20;18.93;;;;;;;22.75;100.00;101219.59;5020769;28;20038;-52
2022/05/20 15:42:38;;;;;;;31.77;16.57;;;;;;;21.83;100.00;101223.50;5025570;28;20614;-52
2022/05/20 15:45:05;;;;;;;30.42;17.15;;;;;;;21.98;100.00;101221.97;5033125;28;20291;-50
2022/05/20 15:47:31;;;;;;;41.37;20.97;;;;;;;21.94;100.00;101226.31;5033263;28;20041;-52
2022/05/20 15:49:56;;;;;;;48.33;25.15;;;;;;;21.92;100.00;101216.50;5033214;28;20317;-54
2022/05/20 15:52:35;;;;;;;44.58;24.25;;;;;;;22.05;100.00;101226.09;5032198;28;20029;-55
2022/05/20 15:55:24;;;;;;;40.90;21.33;;;;;;;21.63;100.00;101245.94;5014297;28;20042;-54
2022/05/20 15:57:52;;;;;;;44.43;21.63;;;;;;;22.47;100.00;101259.84;5028171;28;20354;-51
2022/05/20 16:00:18;;;;;;;34.93;18.73;;;;;;;22.67;100.00;101257.44;5032735;28;20298;-49
2022/05/20 16:02:45;;;;;;;31.90;17.63;;;;;;;23.28;100.00;101266.91;5026602;28;20268;-50
2022/05/20 16:05:20;;;;;;;30.92;16.60;;;;;;;23.22;100.00;101271.50;5032547;28;20034;-52
2022/05/20 16:07:49;;;;;;;34.67;17.93;;;;;;;23.70;100.00;101262.28;5030761;28;20053;-53
2022/05/20 16:10:20;;;;;;;25.80;15.73;;;;;;;23.12;100.00;101272.31;5022923;28;20101;-51
2022/05/20 16:12:45;;;;;;;40.50;21.43;;;;;;;22.97;100.00;101275.81;5031790;28;20052;-51
2022/05/20 16:15:11;;;;;;;32.20;19.13;;;;;;;22.83;100.00;101274.69;5033120;28;20057;-53
2022/05/20 16:17:36;;;;;;;33.22;17.15;;;;;;;22.75;100.00;101282.28;5026547;28;20062;-50
2022/05/20 16:20:03;;;;;;;33.28;19.70;;;;;;;23.98;100.00;101284.63;5032802;28;20038;-54
2022/05/20 16:22:33;;;;;;;31.47;15.43;;;;;;;23.11;100.00;101299.88;5017512;28;20072;-52
2022/05/20 16:24:59;;;;;;;24.57;14.83;;;;;;;22.63;100.00;101300.78;5028595;28;20054;-52
2022/05/20 16:27:26;;;;;;;24.40;15.00;;;;;;;23.87;100.00;101289.28;5032355;28;20041;-53
2022/05/20 16:29:52;;;;;;;19.43;12.17;;;;;;;24.45;100.00;101297.13;5029498;28;20113;-52
2022/05/20 16:32:17;;;;;;;20.00;13.10;;;;;;;23.95;100.00;101313.31;5029334;28;20037;-52
2022/05/20 16:34:43;;;;;;;19.60;11.40;;;;;;;23.40;100.00;101321.22;5027812;28;20037;-55
2022/05/20 16:37:08;;;;;;;16.00;10.65;;;;;;;22.51;100.00;101352.78;5027623;28;20045;-49
2022/05/20 16:39:34;;;;;;;20.63;9.48;;;;;;;21.88;100.00;101370.53;5026500;28;20059;-54
2022/05/20 16:41:59;;;;;;;13.63;9.68;;;;;;;21.36;100.00;101382.81;5030779;28;20102;-51
2022/05/20 16:44:25;;;;;;;17.30;11.77;;;;;;;21.33;100.00;101389.56;5029732;28;20057;-50
2022/05/20 16:46:53;;;;;;;53.20;32.45;;;;;;;21.25;100.00;101397.34;5010343;28;20038;-53
2022/05/20 16:49:23;;;;;;;20.00;11.60;;;;;;;21.54;100.00;101392.53;5031552;28;20064;-54
2022/05/20 16:51:53;;;;;;;21.03;13.83;;;;;;;21.51;100.00;101400.38;5025175;28;20030;-56
2022/05/20 16:54:21;;;;;;;18.60;12.83;;;;;;;21.91;100.00;101391.84;5025448;28;20030;-54
2022/05/20 17:02:20;;;;;;;19.07;11.23;;;;;;;22.42;100.00;101414.28;5025980;28;20097;-52
2022/05/20 17:04:47;;;;;;;9.70;7.53;;;;;;;21.87;100.00;101420.63;5025227;28;20067;-49
2022/05/20 17:07:12;;;;;;;;;;;;;;;20.69;100.00;101425.44;5031565;28;20098;-51
2022/05/20 17:09:37;;;;;;;20.57;12.40;;;;;;;20.71;100.00;101436.88;5032027;28;19913;-53
2022/05/20 17:12:04;;;;;;;23.95;15.10;;;;;;;20.87;100.00;101441.47;5023424;28;20071;-52
2022/05/20 17:14:30;;;;;;;36.08;17.10;;;;;;;20.92;100.00;101454.31;5046629;28;20113;-53
2022/05/20 17:16:56;;;;;;;25.90;14.27;;;;;;;19.84;100.00;101450.59;5021613;28;20042;-54
2022/05/20 17:19:22;;;;;;;29.02;15.48;;;;;;;19.90;100.00;101457.78;5028896;28;20267;-52
2022/05/20 17:24:36;;;;;;;31.43;17.80;;;;;;;20.04;100.00;101471.91;5018904;28;20034;-53
2022/05/20 17:27:06;;;;;;;32.87;16.97;;;;;;;20.13;100.00;101464.19;5030809;28;20393;-51
2022/05/20 17:29:37;;;;;;;31.43;17.10;;;;;;;19.91;100.00;101463.00;5023333;28;20309;-52
2022/05/20 17:32:05;;;;;;;36.07;18.93;;;;;;;20.49;100.00;101481.09;5019536;28;20275;-50
2022/05/20 17:34:32;;;;;;;37.80;19.00;;;;;;;20.68;100.00;101500.69;5025212;28;20295;-50
2022/05/20 17:36:58;;;;;;;35.63;17.93;;;;;;;20.09;100.00;101507.31;5025038;28;20329;-51
2022/05/20 17:39:24;;;;;;;35.55;17.50;;;;;;;21.05;100.00;101507.50;5031024;28;20335;-50
2022/05/20 17:41:50;;;;;;;34.95;17.38;;;;;;;20.65;100.00;101516.69;5031436;28;20063;-50
2022/05/20 17:44:15;;;;;;;31.95;16.10;;;;;;;20.16;100.00;101524.25;5031547;28;20042;-48
2022/05/20 17:46:42;;;;;;;28.75;14.85;;;;;;;20.06;100.00;101529.47;5031119;28;20042;-51
2022/05/20 17:49:09;;;;;;;28.03;16.57;;;;;;;20.44;100.00;101530.72;5031502;28;20125;-49
2022/05/20 17:51:36;;;;;;;36.13;11.93;;;;;;;19.44;100.00;101544.50;5031175;28;20274;-49
2022/05/20 17:54:03;;;;;;;24.87;12.73;;;;;;;20.05;100.00;101538.69;5026387;28;20038;-51
2022/05/20 17:56:29;;;;;;;25.90;12.63;;;;;;;19.86;100.00;101551.59;5023801;28;20292;-50
2022/05/20 17:58:55;;;;;;;23.27;12.30;;;;;;;19.63;100.00;101556.88;5013342;28;20034;-51
2022/05/20 18:01:20;;;;;;;23.52;11.15;;;;;;;18.44;100.00;101548.63;5029470;28;20034;-50
2022/05/20 18:03:47;;;;;;;30.40;13.13;;;;;;;19.29;100.00;101548.53;5031192;28;20038;-52
2022/05/20 18:06:14;;;;;;;26.17;13.30;;;;;;;20.04;100.00;101561.47;5031044;28;20034;-50
2022/05/20 18:08:40;;;;;;;31.13;14.43;;;;;;;20.11;100.00;101559.47;5024723;28;20030;-54
2022/05/20 18:11:05;;;;;;;29.63;13.55;;;;;;;20.27;100.00;101562.44;5031343;28;20283;-53
2022/05/20 18:13:31;;;;;;;24.25;11.38;;;;;;;19.91;100.00;101560.72;5030913;28;20054;-54
2022/05/20 18:15:57;;;;;;;23.10;11.13;;;;;;;20.28;100.00;101543.22;5031176;28;20038;-53
2022/05/20 18:18:23;;;;;;;28.55;10.27;;;;;;;20.61;100.00;101538.06;5031086;28;20038;-54
2022/05/20 18:20:49;;;;;;;18.40;7.50;;;;;;;19.77;100.00;101562.00;5014072;28;20069;-55
2022/05/20 18:23:15;;;;;;;21.75;7.63;;;;;;;19.73;100.00;101552.69;5027317;28;20034;-56
2022/05/20 18:25:41;;;;;;;13.48;6.78;;;;;;;20.12;100.00;101561.13;5010846;28;20198;-49
2022/05/20 18:28:07;;;;;;;17.25;6.68;;;;;;;19.80;100.00;101552.56;5024731;28;20046;-55
2022/05/20 18:30:34;;;;;;;12.18;6.18;;;;;;;20.13;100.00;101557.34;5030958;28;20054;-53
2022/05/20 18:33:00;;;;;;;29.33;13.00;;;;;;;20.51;100.00;101567.78;5019828;28;20040;-53
2022/05/20 18:40:54;;;;;;;14.43;5.50;;;;;;;20.58;100.00;101569.25;5030659;28;20307;-53
2022/05/20 18:43:20;;;;;;;12.02;4.65;;;;;;;19.28;100.00;101573.19;5030607;28;20335;-54
2022/05/20 18:45:45;;;;;;;10.52;4.38;;;;;;;19.85;100.00;101575.22;5030484;28;20042;-53
2022/05/20 18:48:12;;;;;;;8.30;4.25;;;;;;;19.60;100.00;101594.50;5030552;28;20068;-53
2022/05/20 18:50:38;;;;;;;10.60;4.70;;;;;;;19.87;100.00;101594.81;5030273;28;20041;-53
2022/05/20 18:53:04;;;;;;;10.32;4.55;;;;;;;19.92;100.00;101599.53;5014876;28;20120;-53
2022/05/20 18:55:30;;;;;;;16.85;5.10;;;;;;;19.99;100.00;101600.22;5032008;28;20038;-53
2022/05/20 18:57:56;;;;;;;12.55;3.85;;;;;;;19.27;100.00;101609.50;5033904;28;20042;-52
2022/05/20 19:00:25;;;;;;;17.63;5.35;;;;;;;19.92;100.00;101615.81;5033789;28;20145;-54
2022/05/20 19:02:51;;;;;;;15.20;5.40;;;;;;;20.17;100.00;101612.81;5033342;28;20045;-55
2022/05/20 19:05:19;;;;;;;18.33;5.55;;;;;;;19.38;100.00;101621.41;5033659;28;20268;-51
2022/05/20 19:07:45;;;;;;;14.93;5.27;;;;;;;18.66;100.00;101617.72;5033603;28;20045;-52
2022/05/20 19:10:14;;;;;;;24.75;9.52;;;;;;;19.46;100.00;101612.91;5027626;28;20343;-54
2022/05/20 19:12:41;;;;;;;15.40;3.63;;;;;;;18.82;100.00;101621.63;5033600;28;20105;-53
2022/05/20 19:15:12;;;;;;;;;;;;;;;19.85;100.00;101624.06;5028235;28;20305;-52
2022/05/20 19:17:44;;;;;;;7.53;3.00;;;;;;;19.74;100.00;101622.19;5033829;28;19914;-54
2022/05/20 19:20:12;;;;;;;14.73;3.97;;;;;;;19.78;100.00;101634.22;5029486;28;20291;-57
2022/05/20 19:22:38;;;;;;;11.03;3.43;;;;;;;19.26;100.00;101634.94;5025184;28;20279;-50
2022/05/20 19:25:04;;;;;;;7.93;3.00;;;;;;;19.09;100.00;101634.78;5033839;28;20279;-51
2022/05/20 19:27:30;;;;;;;13.25;4.18;;;;;;;19.16;100.00;101635.53;5033496;28;20038;-55
2022/05/20 19:29:55;;;;;;;7.78;3.40;;;;;;;19.23;100.00;101633.53;5033314;28;20085;-51
2022/05/20 19:32:21;;;;;;;9.98;3.92;;;;;;;19.59;100.00;101636.25;5023917;28;20097;-51
2022/05/20 19:34:47;;;;;;;16.10;4.07;;;;;;;20.13;100.00;101640.66;5030080;28;20057;-53
2022/05/20 19:37:12;;;;;;;6.47;2.77;;;;;;;20.09;100.00;101648.50;5033635;28;20034;-51
2022/05/20 19:39:38;;;;;;;10.93;4.18;;;;;;;20.13;100.00;101652.38;5027299;28;20098;-51
2022/05/20 19:42:05;;;;;;;7.82;3.17;;;;;;;19.24;100.00;101640.59;5033661;28;20034;-53
2022/05/20 19:44:31;;;;;;;12.70;5.23;;;;;;;19.28;100.00;101649.09;5033128;28;20048;-51
2022/05/20 19:46:57;;;;;;;10.50;4.30;;;;;;;19.57;100.00;101646.50;5033308;28;20264;-54
2022/05/20 19:49:23;;;;;;;13.45;4.90;;;;;;;18.62;100.00;101647.13;5033173;28;20044;-52
2022/05/20 19:51:51;;;;;;;13.65;6.78;;;;;;;19.59;100.00;101638.97;5024255;28;20063;-53
2022/05/20 19:54:18;;;;;;;25.77;8.30;;;;;;;19.67;100.00;101656.78;5021968;28;20033;-53
2022/05/20 19:56:43;;;;;;;20.23;8.20;;;;;;;19.28;100.00;101666.19;5032330;28;20301;-52
2022/05/20 20:01:53;;;;;;;26.70;10.67;;;;;;;19.53;100.00;101678.69;5032852;28;20061;-55
2022/05/20 20:04:19;;;;;;;22.67;11.77;;;;;;;19.09;100.00;101681.72;5039591;28;20283;-53
2022/05/20 20:06:45;;;;;;;21.88;10.85;;;;;;;19.23;100.00;101701.31;5033950;28;20038;-50
2022/05/20 20:09:11;;;;;;;23.02;10.68;;;;;;;20.36;100.00;101713.13;5016236;28;20036;-51
2022/05/20 20:11:37;;;;;;;23.52;10.23;;;;;;;19.55;100.00;101724.59;5032976;28;20053;-52
2022/05/20 20:14:03;;;;;;;32.35;12.27;;;;;;;19.89;100.00;101728.38;5032172;28;20030;-56
2022/05/20 20:16:29;;;;;;;24.65;10.77;;;;;;;19.68;100.00;101723.53;5017535;28;20095;-53
2022/05/20 20:18:54;;;;;;;29.45;10.75;;;;;;;19.24;100.00;101731.94;5009540;28;20034;-50
2022/05/20 20:26:49;;;;;;;22.77;10.30;;;;;;;18.44;100.00;101718.41;5031785;28;20272;-52
2022/05/20 20:29:17;;;;;;;16.45;6.93;;;;;;;18.15;100.00;101718.94;5032017;28;20299;-53
2022/05/20 20:31:44;;;;;;;12.63;5.83;;;;;;;18.67;100.00;101719.59;5018394;28;20064;-53
2022/05/20 20:34:11;;;;;;;;;;;;;;;18.77;100.00;101723.41;5020763;28;20283;-52
2022/05/20 20:36:38;;;;;;;15.27;5.88;;;;;;;18.54;100.00;101732.25;5024700;28;19935;-50
2022/05/20 20:39:05;;;;;;;21.60;7.13;;;;;;;18.25;100.00;101736.56;5010716;28;20090;-48
2022/05/20 20:41:31;;;;;;;20.13;7.40;;;;;;;18.54;100.00;101747.69;5018065;28;20376;-51
2022/05/20 20:44:01;;;;;;;24.83;8.75;;;;;;;18.66;100.00;101758.56;5026208;28;20279;-52
2022/05/20 20:46:29;;;;;;;23.37;9.93;;;;;;;18.98;100.00;101753.81;5032180;28;20097;-50
2022/05/20 20:48:57;;;;;;;23.40;8.90;;;;;;;18.95;100.00;101754.25;5031934;28;20267;-50
2022/05/20 20:51:23;;;;;;;26.30;9.23;;;;;;;18.91;100.00;101755.75;5031915;28;20263;-51
2022/05/20 20:53:49;;;;;;;29.13;11.68;;;;;;;18.67;100.00;101747.50;5032080;28;20263;-50
2022/05/20 20:56:14;;;;;;;24.95;10.00;;;;;;;18.42;100.00;101753.84;5031829;28;20067;-52
2022/05/20 20:58:40;;;;;;;27.33;11.05;;;;;;;18.57;100.00;101753.47;5031392;28;20057;-53
2022/05/20 21:01:06;;;;;;;29.33;10.57;;;;;;;18.51;100.00;101759.78;5026381;28;20102;-53
2022/05/20 21:03:33;;;;;;;16.35;7.25;;;;;;;18.53;100.00;101773.91;5016580;28;20167;-50
2022/05/20 21:06:00;;;;;;;12.73;6.53;;;;;;;18.38;100.00;101778.91;5032008;28;20105;-51
2022/05/20 21:08:26;;;;;;;14.77;6.13;;;;;;;18.33;100.00;101779.56;5031549;28;20034;-52
2022/05/20 21:10:51;;;;;;;11.75;5.30;;;;;;;19.00;100.00;101778.81;5013705;28;20378;-53
2022/05/20 21:13:17;;;;;;;9.77;5.43;;;;;;;18.88;100.00;101772.47;5015871;28;20030;-51
2022/05/20 21:15:46;;;;;;;19.35;6.40;;;;;;;18.18;100.00;101786.16;5031210;28;20042;-50
2022/05/20 21:18:13;;;;;;;12.07;5.73;;;;;;;17.95;100.00;101788.63;5031954;28;20042;-54
2022/05/20 21:20:41;;;;;;;16.43;6.80;;;;;;;18.00;100.00;101796.94;5017042;28;20284;-53
2022/05/20 21:23:08;;;;;;;16.67;6.40;;;;;;;17.29;100.00;101787.03;5028166;28;20267;-54
2022/05/20 21:25:34;;;;;;;13.73;6.20;;;;;;;18.00;100.00;101802.34;5032047;28;20279;-53
2022/05/20 21:28:01;;;;;;;10.70;5.55;;;;;;;18.41;100.00;101797.41;5031580;28;20287;-54
2022/05/20 21:30:27;;;;;;;12.83;6.00;;;;;;;19.10;100.00;101799.09;5031388;28;20113;-51
2022/05/20 21:32:53;;;;;;;15.05;6.38;;;;;;;18.55;100.00;101798.09;5030481;28;20272;-51
2022/05/20 21:35:19;;;;;;;10.43;5.32;;;;;;;18.90;100.00;101789.31;5014329;28;20056;-51
2022/05/20 21:37:44;;;;;;;19.25;6.10;;;;;;;18.04;100.00;101795.47;5031856;28;20034;-50
2022/05/20 21:40:11;;;;;;;23.50;6.63;;;;;;;17.87;100.00;101804.13;5024784;28;20042;-57
2022/05/20 21:42:37;;;;;;;18.17;6.20;;;;;;;17.98;100.00;101816.09;5026165;28;20271;-52
2022/05/20 21:45:04;;;;;;;11.68;6.47;;;;;;;18.28;100.00;101812.72;5031360;28;20283;-55
2022/05/20 21:47:30;;;;;;;10.07;5.57;;;;;;;18.74;100.00;101807.03;5031772;28;20058;-54
2022/05/20 21:49:57;;;;;;;10.52;5.55;;;;;;;18.91;100.00;101805.34;5025366;28;20286;-51
2022/05/20 21:52:24;;;;;;;12.07;5.80;;;;;;;19.18;100.00;101815.88;5018507;28;20050;-55
2022/05/20 21:54:50;;;;;;;13.47;5.60;;;;;;;18.68;100.00;101808.75;5025104;28;20283;-54
2022/05/20 21:57:15;;;;;;;13.82;5.28;;;;;;;18.30;100.00;101813.31;5031558;28;20272;-49
2022/05/20 21:59:41;;;;;;;12.82;6.03;;;;;;;18.26;100.00;101808.59;5031375;28;20041;-50
2022/05/20 22:10:21;;;;;;;15.30;7.30;;;;;;;18.10;100.00;101818.09;5031471;28;20278;-54
2022/05/20 22:12:48;;;;;;;15.77;7.90;;;;;;;18.00;100.00;101818.59;5031183;28;20270;-54
2022/05/20 22:15:20;;;;;;;21.08;8.77;;;;;;;18.52;100.00;101798.53;5031509;28;20306;-52
2022/05/20 22:17:46;;;;;;;17.97;10.27;;;;;;;18.66;100.00;101796.50;5031310;28;20071;-53
2022/05/20 22:20:14;;;;;;;19.60;10.20;;;;;;;18.03;100.00;101799.25;5030938;28;20288;-51
2022/05/20 22:22:40;;;;;;;25.00;11.00;;;;;;;17.75;100.00;101800.44;5030936;28;20275;-52
2022/05/20 22:25:08;;;;;;;19.92;10.93;;;;;;;17.44;100.00;101808.38;5031043;28;20268;-53
2022/05/20 22:27:34;;;;;;;21.93;11.87;;;;;;;17.15;100.00;101797.09;5030959;28;20041;-54
2022/05/20 22:30:02;;;;;;;32.90;12.90;;;;;;;17.18;100.00;101801.25;5017208;28;20276;-52
2022/05/20 22:32:27;;;;;;;29.93;12.30;;;;;;;17.14;100.00;101802.75;5016940;28;20046;-54
2022/05/20 22:34:53;;;;;;;19.63;11.57;;;;;;;17.89;100.00;101807.44;5023339;28;20290;-55
2022/05/20 22:37:19;;;;;;;26.47;13.70;;;;;;;17.42;100.00;101796.97;5030924;28;20089;-53
2022/05/20 22:39:44;;;;;;;30.45;15.05;;;;;;;17.15;100.00;101807.09;5030861;28;20275;-50
2022/05/20 22:42:10;;;;;;;23.52;12.82;;;;;;;18.01;100.00;101796.75;5030820;28;20049;-53
2022/05/20 22:44:36;;;;;;;31.50;14.90;;;;;;;18.38;100.00;101797.88;5027726;28;20042;-52
2022/05/20 22:47:02;;;;;;;25.10;15.07;;;;;;;17.91;100.00;101793.69;5028364;28;20089;-50